sensor_id;sensor_type;location;lat;lon;timestamp;pressure;altitude;pressure_sealevel;temperature;humidity
21838;BME280;11081;45.946;6.140;2023-01-30T00:01:57;95950.00;;;1.62;70.52
21838;BME280;11081;45.946;6.140;2023-01-30T00:04:25;95956.75;;;1.63;69.86
21838;BME280;11081;45.946;6.140;2023-01-30T00:06:53;95958.13;;;1.67;70.68
21838;BME280;11081;45.946;6.140;2023-01-30T00:09:21;95948.75;;;1.66;70.00
21838;BME280;11081;45.946;6.140;2023-01-30T00:11:51;95952.97;;;1.67;70.28
21838;BME280;11081;45.946;6.140;2023-01-30T00:14:18;95942.38;;;1.70;70.42
21838;BME280;11081;45.946;6.140;2023-01-30T00:16:46;95947.00;;;1.67;69.88
21838;BME280;11081;45.946;6.140;2023-01-30T00:19:14;95946.19;;;1.66;70.24
21838;BME280;11081;45.946;6.140;2023-01-30T00:21:42;95942.69;;;1.67;70.34
21838;BME280;11081;45.946;6.140;2023-01-30T00:24:11;95945.63;;;1.72;70.85
21838;BME280;11081;45.946;6.140;2023-01-30T00:26:39;95939.50;;;1.73;70.60
21838;BME280;11081;45.946;6.140;2023-01-30T00:29:09;95932.09;;;1.70;70.62
21838;BME280;11081;45.946;6.140;2023-01-30T00:31:37;95938.56;;;1.74;70.33
21838;BME280;11081;45.946;6.140;2023-01-30T00:34:05;95935.53;;;1.79;70.11
21838;BME280;11081;45.946;6.140;2023-01-30T00:36:33;95937.44;;;1.77;70.35
21838;BME280;11081;45.946;6.140;2023-01-30T00:39:02;95927.66;;;1.80;69.98
21838;BME280;11081;45.946;6.140;2023-01-30T00:41:31;95932.53;;;1.83;69.55
21838;BME280;11081;45.946;6.140;2023-01-30T00:44:14;95935.25;;;1.82;69.27
21838;BME280;11081;45.946;6.140;2023-01-30T00:47:00;95919.59;;;1.75;69.45
21838;BME280;11081;45.946;6.140;2023-01-30T00:49:37;95928.56;;;1.71;70.02
21838;BME280;11081;45.946;6.140;2023-01-30T00:52:05;95924.56;;;1.59;69.72
21838;BME280;11081;45.946;6.140;2023-01-30T00:54:33;95920.69;;;1.55;69.55
21838;BME280;11081;45.946;6.140;2023-01-30T00:57:02;95918.41;;;1.52;69.52
21838;BME280;11081;45.946;6.140;2023-01-30T00:59:31;95925.75;;;1.47;69.04
21838;BME280;11081;45.946;6.140;2023-01-30T01:01:59;95919.09;;;1.44;69.73
21838;BME280;11081;45.946;6.140;2023-01-30T01:04:27;95922.50;;;1.45;69.65
21838;BME280;11081;45.946;6.140;2023-01-30T01:06:55;95916.78;;;1.51;68.60
21838;BME280;11081;45.946;6.140;2023-01-30T01:09:23;95918.41;;;1.52;69.12
21838;BME280;11081;45.946;6.140;2023-01-30T01:11:51;95916.19;;;1.57;68.97
21838;BME280;11081;45.946;6.140;2023-01-30T01:14:19;95915.09;;;1.60;69.25
21838;BME280;11081;45.946;6.140;2023-01-30T01:16:49;95915.91;;;1.60;68.82
21838;BME280;11081;45.946;6.140;2023-01-30T01:19:17;95933.25;;;1.58;68.93
21838;BME280;11081;45.946;6.140;2023-01-30T01:21:45;95926.19;;;1.60;69.00
21838;BME280;11081;45.946;6.140;2023-01-30T01:24:14;95942.44;;;1.61;69.16
21838;BME280;11081;45.946;6.140;2023-01-30T01:26:43;95948.22;;;1.63;69.19
21838;BME280;11081;45.946;6.140;2023-01-30T01:29:12;95945.44;;;1.56;69.66
21838;BME280;11081;45.946;6.140;2023-01-30T01:31:41;95942.50;;;1.51;70.00
21838;BME280;11081;45.946;6.140;2023-01-30T01:34:11;95944.72;;;1.46;70.04
21838;BME280;11081;45.946;6.140;2023-01-30T01:36:42;95942.81;;;1.48;70.06
21838;BME280;11081;45.946;6.140;2023-01-30T01:39:20;95952.50;;;1.54;69.73
21838;BME280;11081;45.946;6.140;2023-01-30T01:41:49;95934.72;;;1.61;69.96
21838;BME280;11081;45.946;6.140;2023-01-30T01:44:16;95939.41;;;1.65;69.49
21838;BME280;11081;45.946;6.140;2023-01-30T01:46:47;95933.84;;;1.52;69.09
21838;BME280;11081;45.946;6.140;2023-01-30T01:49:21;95933.25;;;1.58;69.00
21838;BME280;11081;45.946;6.140;2023-01-30T01:51:54;95927.50;;;1.64;69.45
21838;BME280;11081;45.946;6.140;2023-01-30T01:54:27;95924.88;;;1.56;69.12
21838;BME280;11081;45.946;6.140;2023-01-30T01:56:59;95921.41;;;1.47;69.60
21838;BME280;11081;45.946;6.140;2023-01-30T01:59:31;95911.66;;;1.51;69.35
21838;BME280;11081;45.946;6.140;2023-01-30T02:02:06;95910.25;;;1.57;68.93
21838;BME280;11081;45.946;6.140;2023-01-30T02:04:37;95915.38;;;1.57;68.98
21838;BME280;11081;45.946;6.140;2023-01-30T02:07:25;95910.88;;;1.41;69.31
21838;BME280;11081;45.946;6.140;2023-01-30T02:09:54;95911.47;;;1.35;69.06
21838;BME280;11081;45.946;6.140;2023-01-30T02:12:22;95914.03;;;1.35;69.41
21838;BME280;11081;45.946;6.140;2023-01-30T02:14:53;95906.03;;;1.38;69.87
21838;BME280;11081;45.946;6.140;2023-01-30T02:17:21;95915.00;;;1.34;69.90
21838;BME280;11081;45.946;6.140;2023-01-30T02:19:53;95928.50;;;1.36;69.24
21838;BME280;11081;45.946;6.140;2023-01-30T02:22:40;95930.91;;;1.19;70.62
21838;BME280;11081;45.946;6.140;2023-01-30T02:25:38;95945.19;;;1.04;71.25
21838;BME280;11081;45.946;6.140;2023-01-30T02:31:22;95940.50;;;1.17;71.39
21838;BME280;11081;45.946;6.140;2023-01-30T02:33:59;95934.25;;;1.30;71.57
21838;BME280;11081;45.946;6.140;2023-01-30T02:36:41;95931.44;;;1.41;70.64
21838;BME280;11081;45.946;6.140;2023-01-30T02:39:21;95932.50;;;1.48;70.76
21838;BME280;11081;45.946;6.140;2023-01-30T02:41:59;95937.38;;;1.51;69.74
21838;BME280;11081;45.946;6.140;2023-01-30T02:44:41;95938.22;;;1.42;69.87
21838;BME280;11081;45.946;6.140;2023-01-30T02:47:16;95938.31;;;1.50;70.23
21838;BME280;11081;45.946;6.140;2023-01-30T02:49:51;95939.81;;;1.43;70.09
21838;BME280;11081;45.946;6.140;2023-01-30T02:52:22;95939.28;;;1.49;70.16
21838;BME280;11081;45.946;6.140;2023-01-30T02:54:50;95930.31;;;1.53;69.39
21838;BME280;11081;45.946;6.140;2023-01-30T02:57:19;95921.94;;;1.51;69.62
21838;BME280;11081;45.946;6.140;2023-01-30T02:59:54;95920.81;;;1.36;69.17
21838;BME280;11081;45.946;6.140;2023-01-30T03:02:37;95934.78;;;1.23;69.89
21838;BME280;11081;45.946;6.140;2023-01-30T03:05:21;95937.13;;;1.17;70.81
21838;BME280;11081;45.946;6.140;2023-01-30T03:07:59;95935.09;;;1.20;70.05
21838;BME280;11081;45.946;6.140;2023-01-30T03:10:36;95924.81;;;1.20;70.87
21838;BME280;11081;45.946;6.140;2023-01-30T03:13:10;95927.78;;;1.26;70.24
21838;BME280;11081;45.946;6.140;2023-01-30T03:15:46;95942.13;;;1.18;70.51
21838;BME280;11081;45.946;6.140;2023-01-30T03:18:18;95948.94;;;1.10;70.87
21838;BME280;11081;45.946;6.140;2023-01-30T03:20:47;95954.03;;;1.19;71.57
21838;BME280;11081;45.946;6.140;2023-01-30T03:23:15;95948.03;;;1.29;70.95
21838;BME280;11081;45.946;6.140;2023-01-30T03:25:44;95949.09;;;1.36;71.21
21838;BME280;11081;45.946;6.140;2023-01-30T03:28:17;95952.69;;;1.43;71.50
21838;BME280;11081;45.946;6.140;2023-01-30T03:30:48;95957.81;;;1.43;71.46
21838;BME280;11081;45.946;6.140;2023-01-30T03:33:18;95955.25;;;1.43;71.00
21838;BME280;11081;45.946;6.140;2023-01-30T03:35:47;95967.97;;;1.44;70.58
21838;BME280;11081;45.946;6.140;2023-01-30T03:38:16;95980.72;;;1.46;71.34
21838;BME280;11081;45.946;6.140;2023-01-30T03:40:48;96002.13;;;1.37;71.31
21838;BME280;11081;45.946;6.140;2023-01-30T03:43:17;96017.69;;;1.35;71.20
21838;BME280;11081;45.946;6.140;2023-01-30T03:45:45;96032.00;;;1.10;71.00
21838;BME280;11081;45.946;6.140;2023-01-30T03:48:13;96035.09;;;1.14;72.01
21838;BME280;11081;45.946;6.140;2023-01-30T03:50:42;96028.41;;;1.31;70.69
21838;BME280;11081;45.946;6.140;2023-01-30T03:53:10;96025.41;;;1.35;71.36
21838;BME280;11081;45.946;6.140;2023-01-30T03:55:39;96016.22;;;1.33;71.71
21838;BME280;11081;45.946;6.140;2023-01-30T03:58:07;96012.13;;;1.40;71.66
21838;BME280;11081;45.946;6.140;2023-01-30T04:00:35;96010.19;;;1.51;70.71
21838;BME280;11081;45.946;6.140;2023-01-30T04:03:03;96020.97;;;1.55;70.52
21838;BME280;11081;45.946;6.140;2023-01-30T04:05:31;96039.16;;;1.44;70.88
21838;BME280;11081;45.946;6.140;2023-01-30T04:08:05;96031.34;;;1.36;70.83
21838;BME280;11081;45.946;6.140;2023-01-30T04:10:34;96014.03;;;1.38;70.67
21838;BME280;11081;45.946;6.140;2023-01-30T04:13:02;96022.84;;;1.35;71.06
21838;BME280;11081;45.946;6.140;2023-01-30T04:15:31;96031.94;;;1.30;70.73
21838;BME280;11081;45.946;6.140;2023-01-30T04:18:34;96027.06;;;1.27;70.94
21838;BME280;11081;45.946;6.140;2023-01-30T04:21:10;96038.41;;;1.34;70.68
21838;BME280;11081;45.946;6.140;2023-01-30T04:23:40;96036.50;;;1.36;70.71
21838;BME280;11081;45.946;6.140;2023-01-30T04:26:09;96017.53;;;1.37;71.12
21838;BME280;11081;45.946;6.140;2023-01-30T04:28:39;96020.50;;;1.42;70.86
21838;BME280;11081;45.946;6.140;2023-01-30T04:31:07;96011.81;;;1.43;70.71
21838;BME280;11081;45.946;6.140;2023-01-30T04:33:49;96009.91;;;1.45;70.75
21838;BME280;11081;45.946;6.140;2023-01-30T04:36:17;96002.31;;;1.53;71.03
21838;BME280;11081;45.946;6.140;2023-01-30T04:38:47;96011.31;;;1.39;71.14
21838;BME280;11081;45.946;6.140;2023-01-30T04:41:17;96021.66;;;1.30;71.64
21838;BME280;11081;45.946;6.140;2023-01-30T04:43:45;96016.50;;;1.30;71.61
21838;BME280;11081;45.946;6.140;2023-01-30T04:46:34;96011.06;;;1.33;71.91
21838;BME280;11081;45.946;6.140;2023-01-30T04:49:02;95998.50;;;1.30;71.53
21838;BME280;11081;45.946;6.140;2023-01-30T04:51:30;95978.03;;;1.38;71.93
21838;BME280;11081;45.946;6.140;2023-01-30T04:54:00;95980.72;;;1.46;70.95
21838;BME280;11081;45.946;6.140;2023-01-30T04:56:30;95978.50;;;1.51;70.33
21838;BME280;11081;45.946;6.140;2023-01-30T04:58:58;95990.72;;;1.49;70.65
21838;BME280;11081;45.946;6.140;2023-01-30T05:01:33;95998.00;;;1.44;70.90
21838;BME280;11081;45.946;6.140;2023-01-30T05:04:02;95988.31;;;1.38;71.40
21838;BME280;11081;45.946;6.140;2023-01-30T05:06:31;95972.22;;;1.36;70.99
21838;BME280;11081;45.946;6.140;2023-01-30T05:09:02;95975.09;;;1.33;70.93
21838;BME280;11081;45.946;6.140;2023-01-30T05:11:31;95955.47;;;1.32;70.64
21838;BME280;11081;45.946;6.140;2023-01-30T05:13:59;95952.09;;;1.31;70.95
21838;BME280;11081;45.946;6.140;2023-01-30T05:16:28;95957.09;;;1.33;70.68
21838;BME280;11081;45.946;6.140;2023-01-30T05:18:56;95966.41;;;1.34;70.92
21838;BME280;11081;45.946;6.140;2023-01-30T05:21:25;95962.31;;;1.41;70.44
21838;BME280;11081;45.946;6.140;2023-01-30T05:23:55;95944.41;;;1.49;69.93
21838;BME280;11081;45.946;6.140;2023-01-30T05:26:25;95943.66;;;1.39;69.98
21838;BME280;11081;45.946;6.140;2023-01-30T05:28:54;95954.50;;;1.33;70.01
21838;BME280;11081;45.946;6.140;2023-01-30T05:31:23;95951.28;;;1.31;70.76
21838;BME280;11081;45.946;6.140;2023-01-30T05:33:52;95946.66;;;1.34;70.55
21838;BME280;11081;45.946;6.140;2023-01-30T05:36:21;95944.22;;;1.33;70.51
21838;BME280;11081;45.946;6.140;2023-01-30T05:38:50;95945.84;;;1.34;70.14
21838;BME280;11081;45.946;6.140;2023-01-30T05:41:18;95946.44;;;1.28;70.30
21838;BME280;11081;45.946;6.140;2023-01-30T05:43:49;95938.97;;;1.25;71.18
21838;BME280;11081;45.946;6.140;2023-01-30T05:46:18;95930.72;;;1.31;71.20
21838;BME280;11081;45.946;6.140;2023-01-30T05:48:46;95925.28;;;1.34;70.56
21838;BME280;11081;45.946;6.140;2023-01-30T05:51:15;95927.94;;;1.42;70.41
21838;BME280;11081;45.946;6.140;2023-01-30T05:53:44;95928.50;;;1.36;70.58
21838;BME280;11081;45.946;6.140;2023-01-30T05:56:12;95919.34;;;1.33;70.85
21838;BME280;11081;45.946;6.140;2023-01-30T05:58:40;95915.00;;;1.34;71.10
21838;BME280;11081;45.946;6.140;2023-01-30T06:01:11;95932.34;;;1.32;70.30
21838;BME280;11081;45.946;6.140;2023-01-30T06:03:39;95930.72;;;1.31;70.39
21838;BME280;11081;45.946;6.140;2023-01-30T06:06:09;95930.72;;;1.31;71.18
21838;BME280;11081;45.946;6.140;2023-01-30T06:08:38;95954.81;;;1.30;70.67
21838;BME280;11081;45.946;6.140;2023-01-30T06:11:08;95963.03;;;1.06;71.66
21838;BME280;11081;45.946;6.140;2023-01-30T06:13:36;95953.56;;;1.06;71.58
21838;BME280;11081;45.946;6.140;2023-01-30T06:16:05;95951.59;;;1.18;71.73
21838;BME280;11081;45.946;6.140;2023-01-30T06:18:35;95947.59;;;1.33;71.24
21838;BME280;11081;45.946;6.140;2023-01-30T06:21:04;95946.22;;;1.39;70.67
21838;BME280;11081;45.946;6.140;2023-01-30T06:23:33;95941.75;;;1.41;70.60
21838;BME280;11081;45.946;6.140;2023-01-30T06:26:01;95944.13;;;1.52;70.47
21838;BME280;11081;45.946;6.140;2023-01-30T06:28:33;95946.31;;;1.47;70.18
21838;BME280;11081;45.946;6.140;2023-01-30T06:31:01;95947.53;;;1.43;69.39
21838;BME280;11081;45.946;6.140;2023-01-30T06:33:30;95939.09;;;1.33;69.79
21838;BME280;11081;45.946;6.140;2023-01-30T06:35:59;95935.09;;;1.20;69.80
21838;BME280;11081;45.946;6.140;2023-01-30T06:38:27;95953.50;;;1.16;69.93
21838;BME280;11081;45.946;6.140;2023-01-30T06:40:55;95966.50;;;1.14;70.44
21838;BME280;11081;45.946;6.140;2023-01-30T06:43:23;95971.66;;;1.14;69.88
21838;BME280;11081;45.946;6.140;2023-01-30T06:45:51;95961.38;;;1.14;69.72
21838;BME280;11081;45.946;6.140;2023-01-30T06:48:20;95974.31;;;1.22;70.10
21838;BME280;11081;45.946;6.140;2023-01-30T06:50:47;95960.84;;;1.11;69.30
21838;BME280;11081;45.946;6.140;2023-01-30T06:53:17;95959.78;;;1.04;69.84
21838;BME280;11081;45.946;6.140;2023-01-30T06:55:45;95943.00;;;1.09;69.53
21838;BME280;11081;45.946;6.140;2023-01-30T06:58:13;95954.03;;;1.19;69.25
21838;BME280;11081;45.946;6.140;2023-01-30T07:00:42;95960.25;;;1.17;68.75
21838;BME280;11081;45.946;6.140;2023-01-30T07:03:10;95966.50;;;1.14;69.24
21838;BME280;11081;45.946;6.140;2023-01-30T07:05:39;95977.06;;;1.11;69.50
21838;BME280;11081;45.946;6.140;2023-01-30T07:08:08;95979.34;;;1.14;69.09
21838;BME280;11081;45.946;6.140;2023-01-30T07:10:38;95976.78;;;1.14;69.42
21838;BME280;11081;45.946;6.140;2023-01-30T07:13:07;95968.22;;;1.23;69.07
21838;BME280;11081;45.946;6.140;2023-01-30T07:15:35;95970.31;;;1.38;68.80
21838;BME280;11081;45.946;6.140;2023-01-30T07:18:04;95980.72;;;1.46;68.68
21838;BME280;11081;45.946;6.140;2023-01-30T07:20:32;95980.94;;;1.52;68.37
21838;BME280;11081;45.946;6.140;2023-01-30T07:23:00;95997.47;;;1.50;68.73
21838;BME280;11081;45.946;6.140;2023-01-30T07:25:28;95992.31;;;1.50;68.70
21838;BME280;11081;45.946;6.140;2023-01-30T07:28:00;95979.84;;;1.55;68.78
21838;BME280;11081;45.946;6.140;2023-01-30T07:30:30;95974.69;;;1.55;68.34
21838;BME280;11081;45.946;6.140;2023-01-30T07:32:59;95969.25;;;1.58;68.59
21838;BME280;11081;45.946;6.140;2023-01-30T07:35:29;95963.81;;;1.61;67.84
21838;BME280;11081;45.946;6.140;2023-01-30T07:37:58;95959.56;;;1.52;68.38
21838;BME280;11081;45.946;6.140;2023-01-30T07:40:26;95951.72;;;1.44;69.14
21838;BME280;11081;45.946;6.140;2023-01-30T07:42:55;95952.03;;;1.41;68.44
21838;BME280;11081;45.946;6.140;2023-01-30T07:45:27;95957.75;;;1.35;68.76
21838;BME280;11081;45.946;6.140;2023-01-30T07:47:56;95952.97;;;1.40;68.60
21838;BME280;11081;45.946;6.140;2023-01-30T07:50:24;95949.59;;;1.39;69.36
21838;BME280;11081;45.946;6.140;2023-01-30T07:52:52;95954.31;;;1.44;69.23
21838;BME280;11081;45.946;6.140;2023-01-30T07:55:20;95964.19;;;1.48;68.53
21838;BME280;11081;45.946;6.140;2023-01-30T07:57:48;95973.38;;;1.51;68.60
21838;BME280;11081;45.946;6.140;2023-01-30T08:00:17;95983.94;;;1.48;67.99
21838;BME280;11081;45.946;6.140;2023-01-30T08:02:47;96001.28;;;1.46;68.05
21838;BME280;11081;45.946;6.140;2023-01-30T08:05:15;96011.00;;;1.52;68.21
21838;BME280;11081;45.946;6.140;2023-01-30T08:07:43;96027.75;;;1.56;68.44
21838;BME280;11081;45.946;6.140;2023-01-30T08:10:13;96029.38;;;1.57;68.91
21838;BME280;11081;45.946;6.140;2023-01-30T08:12:41;96042.59;;;1.62;68.72
21838;BME280;11081;45.946;6.140;2023-01-30T08:15:09;96021.19;;;1.71;68.39
21838;BME280;11081;45.946;6.140;2023-01-30T08:17:37;96025.53;;;1.61;67.82
21838;BME280;11081;45.946;6.140;2023-01-30T08:20:08;96035.28;;;1.67;67.57
21838;BME280;11081;45.946;6.140;2023-01-30T08:22:36;96035.00;;;1.70;67.54
21838;BME280;11081;45.946;6.140;2023-01-30T08:25:06;96022.41;;;1.40;67.76
21838;BME280;11081;45.946;6.140;2023-01-30T08:27:34;96028.34;;;1.40;68.13
21838;BME280;11081;45.946;6.140;2023-01-30T08:30:02;96031.59;;;1.42;68.17
21838;BME280;11081;45.946;6.140;2023-01-30T08:32:30;96030.50;;;1.45;68.32
21838;BME280;11081;45.946;6.140;2023-01-30T08:34:59;96043.47;;;1.53;67.83
21838;BME280;11081;45.946;6.140;2023-01-30T08:37:28;96052.94;;;1.52;67.50
21838;BME280;11081;45.946;6.140;2023-01-30T08:39:56;96045.66;;;1.48;67.50
21838;BME280;11081;45.946;6.140;2023-01-30T08:42:25;96053.28;;;1.67;68.27
21838;BME280;11081;45.946;6.140;2023-01-30T08:44:53;96053.09;;;1.78;67.57
21838;BME280;11081;45.946;6.140;2023-01-30T08:47:21;96056.44;;;1.89;67.22
21838;BME280;11081;45.946;6.140;2023-01-30T08:49:49;96060.63;;;1.90;67.58
21838;BME280;11081;45.946;6.140;2023-01-30T08:52:18;96057.38;;;1.88;67.26
21838;BME280;11081;45.946;6.140;2023-01-30T08:54:48;96057.91;;;1.91;67.16
21838;BME280;11081;45.946;6.140;2023-01-30T08:57:16;96049.75;;;1.96;67.42
21838;BME280;11081;45.946;6.140;2023-01-30T08:59:44;96043.50;;;1.98;68.00
21838;BME280;11081;45.946;6.140;2023-01-30T09:02:12;96033.13;;;2.08;67.31
21838;BME280;11081;45.946;6.140;2023-01-30T09:04:40;96028.38;;;2.13;67.06
21838;BME280;11081;45.946;6.140;2023-01-30T09:07:08;96037.41;;;2.17;67.07
21838;BME280;11081;45.946;6.140;2023-01-30T09:09:36;96038.00;;;2.11;67.17
21838;BME280;11081;45.946;6.140;2023-01-30T09:12:06;96044.38;;;2.25;66.52
21838;BME280;11081;45.946;6.140;2023-01-30T09:14:34;96043.56;;;2.24;66.33
21838;BME280;11081;45.946;6.140;2023-01-30T09:17:02;96051.97;;;2.26;66.32
21838;BME280;11081;45.946;6.140;2023-01-30T09:19:30;96062.25;;;2.26;66.36
21838;BME280;11081;45.946;6.140;2023-01-30T09:21:58;96052.41;;;2.39;66.33
21838;BME280;11081;45.946;6.140;2023-01-30T09:24:26;96038.28;;;2.43;66.27
21838;BME280;11081;45.946;6.140;2023-01-30T09:26:55;96035.03;;;2.41;66.02
21838;BME280;11081;45.946;6.140;2023-01-30T09:29:26;96042.13;;;2.39;65.98
21838;BME280;11081;45.946;6.140;2023-01-30T09:31:54;96037.63;;;2.41;65.92
21838;BME280;11081;45.946;6.140;2023-01-30T09:34:23;96033.13;;;2.43;65.64
21838;BME280;11081;45.946;6.140;2023-01-30T09:36:53;96034.75;;;2.44;65.60
21838;BME280;11081;45.946;6.140;2023-01-30T09:39:21;96032.03;;;2.28;65.86
21838;BME280;11081;45.946;6.140;2023-01-30T09:41:56;96032.97;;;1.92;66.07
21838;BME280;11081;45.946;6.140;2023-01-30T09:44:49;96034.47;;;1.84;67.19
21838;BME280;11081;45.946;6.140;2023-01-30T09:47:27;96025.09;;;1.93;67.84
21838;BME280;11081;45.946;6.140;2023-01-30T09:50:03;96032.38;;;1.98;67.54
21838;BME280;11081;45.946;6.140;2023-01-30T09:52:45;96037.69;;;2.14;66.44
21838;BME280;11081;45.946;6.140;2023-01-30T09:55:21;96040.03;;;2.25;66.23
21838;BME280;11081;45.946;6.140;2023-01-30T09:57:51;96038.88;;;2.37;65.96
21838;BME280;11081;45.946;6.140;2023-01-30T10:00:25;96046.97;;;2.42;65.72
21838;BME280;11081;45.946;6.140;2023-01-30T10:02:59;96044.34;;;2.34;65.97
21838;BME280;11081;45.946;6.140;2023-01-30T10:05:36;96049.69;;;2.41;66.27
21838;BME280;11081;45.946;6.140;2023-01-30T10:08:17;96052.50;;;2.30;66.51
21838;BME280;11081;45.946;6.140;2023-01-30T10:10:48;96057.66;;;1.84;68.39
21838;BME280;11081;45.946;6.140;2023-01-30T10:13:47;96059.47;;;1.47;69.09
21838;BME280;11081;45.946;6.140;2023-01-30T10:16:24;96064.25;;;1.69;68.13
21838;BME280;11081;45.946;6.140;2023-01-30T10:22:03;96061.75;;;1.77;68.47
21838;BME280;11081;45.946;6.140;2023-01-30T10:24:42;96050.13;;;1.73;67.77
21838;BME280;11081;45.946;6.140;2023-01-30T10:27:16;96063.09;;;1.81;67.76
21838;BME280;11081;45.946;6.140;2023-01-30T10:29:46;96059.97;;;1.88;68.23
21838;BME280;11081;45.946;6.140;2023-01-30T10:32:18;96060.53;;;1.99;67.71
21838;BME280;11081;45.946;6.140;2023-01-30T10:34:52;96057.31;;;1.97;67.38
21838;BME280;11081;45.946;6.140;2023-01-30T10:37:23;96053.63;;;2.00;68.11
21838;BME280;11081;45.946;6.140;2023-01-30T10:39:58;96056.25;;;1.72;68.44
21838;BME280;11081;45.946;6.140;2023-01-30T10:42:35;96056.28;;;1.90;67.85
21838;BME280;11081;45.946;6.140;2023-01-30T10:45:11;96053.72;;;2.08;67.13
21838;BME280;11081;45.946;6.140;2023-01-30T10:47:51;96048.28;;;2.11;67.12
21838;BME280;11081;45.946;6.140;2023-01-30T10:50:26;96042.69;;;1.98;68.27
21838;BME280;11081;45.946;6.140;2023-01-30T10:53:01;96032.97;;;1.92;68.23
21838;BME280;11081;45.946;6.140;2023-01-30T10:55:34;96038.50;;;2.14;67.57
21838;BME280;11081;45.946;6.140;2023-01-30T10:58:11;96033.13;;;2.43;66.79
21838;BME280;11081;45.946;6.140;2023-01-30T11:00:48;96038.88;;;2.37;67.08
21838;BME280;11081;45.946;6.140;2023-01-30T11:03:31;96047.25;;;2.39;67.03
21838;BME280;11081;45.946;6.140;2023-01-30T11:06:05;96049.47;;;2.34;66.91
21838;BME280;11081;45.946;6.140;2023-01-30T11:08:35;96055.59;;;2.51;66.64
21838;BME280;11081;45.946;6.140;2023-01-30T11:11:25;96055.00;;;2.57;65.80
21838;BME280;11081;45.946;6.140;2023-01-30T11:14:05;96057.41;;;2.59;65.03
21838;BME280;11081;45.946;6.140;2023-01-30T11:16:43;96058.00;;;2.53;65.65
21838;BME280;11081;45.946;6.140;2023-01-30T11:19:14;96050.53;;;2.67;65.86
21838;BME280;11081;45.946;6.140;2023-01-30T11:21:49;96046.28;;;2.76;65.64
21838;BME280;11081;45.946;6.140;2023-01-30T11:24:19;96051.34;;;2.68;65.81
21838;BME280;11081;45.946;6.140;2023-01-30T11:26:49;96052.41;;;2.75;65.01
21838;BME280;11081;45.946;6.140;2023-01-30T11:29:27;96061.97;;;2.65;64.86
21838;BME280;11081;45.946;6.140;2023-01-30T11:31:56;96058.72;;;2.63;65.97
21838;BME280;11081;45.946;6.140;2023-01-30T11:34:29;96051.78;;;2.81;65.01
21838;BME280;11081;45.946;6.140;2023-01-30T11:37:13;96054.41;;;2.89;65.50
21838;BME280;11081;45.946;6.140;2023-01-30T11:39:50;96055.81;;;3.01;64.32
21838;BME280;11081;45.946;6.140;2023-01-30T11:42:23;96040.59;;;3.16;64.23
21838;BME280;11081;45.946;6.140;2023-01-30T11:44:54;96036.63;;;3.30;64.30
21838;BME280;11081;45.946;6.140;2023-01-30T11:47:48;96027.50;;;3.44;63.70
21838;BME280;11081;45.946;6.140;2023-01-30T11:50:28;96011.53;;;3.40;63.70
21838;BME280;11081;45.946;6.140;2023-01-30T11:53:04;96017.00;;;3.37;63.74
21838;BME280;11081;45.946;6.140;2023-01-30T11:55:35;96009.59;;;3.42;63.67
21838;BME280;11081;45.946;6.140;2023-01-30T11:58:08;96006.41;;;3.48;63.52
21838;BME280;11081;45.946;6.140;2023-01-30T12:00:39;96002.44;;;3.28;64.21
21838;BME280;11081;45.946;6.140;2023-01-30T12:03:11;95993.41;;;3.24;64.16
21838;BME280;11081;45.946;6.140;2023-01-30T12:05:43;96001.03;;;3.33;63.69
21838;BME280;11081;45.946;6.140;2023-01-30T12:08:21;96001.53;;;3.37;64.07
21838;BME280;11081;45.946;6.140;2023-01-30T12:11:24;95996.41;;;3.53;62.41
21838;BME280;11081;45.946;6.140;2023-01-30T12:13:54;95986.91;;;3.54;63.80
21838;BME280;11081;45.946;6.140;2023-01-30T12:16:41;95976.78;;;3.60;62.79
21838;BME280;11081;45.946;6.140;2023-01-30T12:19:22;95973.16;;;3.45;62.82
21838;BME280;11081;45.946;6.140;2023-01-30T12:21:58;95973.09;;;3.29;64.27
21838;BME280;11081;45.946;6.140;2023-01-30T12:24:34;95962.84;;;3.45;63.18
21838;BME280;11081;45.946;6.140;2023-01-30T12:27:10;95961.94;;;3.54;62.94
21838;BME280;11081;45.946;6.140;2023-01-30T12:29:50;95960.34;;;3.70;62.61
21838;BME280;11081;45.946;6.140;2023-01-30T12:32:24;95947.47;;;3.78;62.39
21838;BME280;11081;45.946;6.140;2023-01-30T12:34:53;95930.34;;;3.60;62.81
21838;BME280;11081;45.946;6.140;2023-01-30T12:37:35;95910.31;;;3.54;62.51
21838;BME280;11081;45.946;6.140;2023-01-30T12:40:15;95908.41;;;3.56;62.62
21838;BME280;11081;45.946;6.140;2023-01-30T12:43:11;95915.81;;;3.67;61.95
21838;BME280;11081;45.946;6.140;2023-01-30T12:45:48;95906.13;;;3.61;61.90
21838;BME280;11081;45.946;6.140;2023-01-30T12:48:33;95906.78;;;3.55;62.41
21838;BME280;11081;45.946;6.140;2023-01-30T12:51:22;95920.00;;;3.60;62.75
21838;BME280;11081;45.946;6.140;2023-01-30T12:54:05;95915.75;;;3.35;63.01
21838;BME280;11081;45.946;6.140;2023-01-30T12:56:51;95919.03;;;3.70;62.43
21838;BME280;11081;45.946;6.140;2023-01-30T12:59:27;95917.81;;;3.98;62.28
21838;BME280;11081;45.946;6.140;2023-01-30T13:02:08;95933.63;;;4.11;60.99
21838;BME280;11081;45.946;6.140;2023-01-30T13:04:52;95909.41;;;4.12;60.81
21838;BME280;11081;45.946;6.140;2023-01-30T13:07:34;95910.69;;;4.16;60.60
21838;BME280;11081;45.946;6.140;2023-01-30T13:10:11;95902.28;;;4.31;60.42
21838;BME280;11081;45.946;6.140;2023-01-30T13:12:49;95903.28;;;4.21;62.38
21838;BME280;11081;45.946;6.140;2023-01-30T13:15:25;95893.59;;;3.99;61.90
21838;BME280;11081;45.946;6.140;2023-01-30T13:18:06;95900.84;;;3.87;61.54
21838;BME280;11081;45.946;6.140;2023-01-30T13:20:49;95911.97;;;3.80;61.93
21838;BME280;11081;45.946;6.140;2023-01-30T13:23:22;95898.44;;;3.78;61.94
21838;BME280;11081;45.946;6.140;2023-01-30T13:25:58;95896.81;;;3.85;61.76
21838;BME280;11081;45.946;6.140;2023-01-30T13:28:31;95890.03;;;4.16;60.85
21838;BME280;11081;45.946;6.140;2023-01-30T13:31:04;95891.16;;;4.30;59.96
21838;BME280;11081;45.946;6.140;2023-01-30T13:33:36;95883.56;;;4.45;60.86
21838;BME280;11081;45.946;6.140;2023-01-30T13:36:11;95897.16;;;4.22;60.49
21838;BME280;11081;45.946;6.140;2023-01-30T13:38:54;95900.00;;;3.54;61.36
21838;BME280;11081;45.946;6.140;2023-01-30T13:41:30;95900.31;;;3.51;63.98
21838;BME280;11081;45.946;6.140;2023-01-30T13:44:02;95886.81;;;3.82;61.64